Search for the current weather situation

Metar

Metar
TNCA 231300Z 10020KT 9999 FEW020 29/22 Q1013 NOSIG
Decoded Metar

TAF

TAF
TNCA 231300Z 10020KT 9999 FEW020 29/22 Q1013 NOSIG
Decoded TAF
Top